首页
METAR-TAF:

METAR-TAF

机场 :

Lewiston-Nez Perce County Airport

刘易斯顿, 爱达荷州, 美国

纬度: 46-22-29N, 经度: 117-00-52W, 海拔: 438米

当前天气观测

该预报发布于10分钟前的09:56 UTC
风速4节,风向
温度 11°C
湿度 71%
气压 1016 hPa
能見度: 16.1公里
天空无云

METAR: KLWS 190956Z AUTO 09004KT 10SM CLR 11/06 A3000 RMK AO2 SLP157 T01110061 $

时间: 03:06 (10:06 UTC)

预报

该预报发布于4小时和46分钟前的05:20 UTC
预报有效从19日的 06点(UTC)到 20日的 06点(UTC)
风速7节,风向
能見度: 10公里
少量云层高于8000英尺
从 19日的 0800点(UTC)
风速4节,风向东转东南
能見度: 10公里
散云层高于8000英尺
从 19日的 1700点(UTC)
风速4节,风向东转东北
能見度: 10公里
散云层高于7000英尺

TAF: KLWS 190520Z 1906/2006 08007KT P6SM FEW080 FM190800 12004KT P6SM SCT080 FM191700 06004KT P6SM SCT070

超过4000个机场的气象观测和天气预报(METAR&TAF报告)。

可查询的气象台以黄色和红色小点在地图上表示。

将鼠标移到小点上方,可查看气象台名称。

然后点击查看天气观测和预报。

如需切换地图:点击带黑十字的绿色按钮放大地图;点击带横线的绿色按钮缩小地图;或者点击绿色箭头查看邻近地区的地图。


METAR-TAF: